Time;durP1;ratioP1;P1;durP2;ratioP2;P2;SDS_P1;SDS_P2;PMS_P1;PMS_P2;Temp;Humidity;BMP_temperature;BMP_pressure;BME280_temperature;BME280_humidity;BME280_pressure;Samples;Min_cycle;Max_cycle;Signal;HPM_P1;HPM_P2
2020/12/08 00:00:21;;;;;;;9.93;7.50;;;3.70;1.00;;;;;;5052782;28;20321;-67
2020/12/08 00:02:47;;;;;;;16.27;11.90;;;3.70;1.00;;;;;;5053052;28;20541;-67
2020/12/08 00:05:15;;;;;;;13.83;10.30;;;3.90;1.00;;;;;;5052971;28;20165;-67
2020/12/08 00:07:41;;;;;;;15.98;11.40;;;4.00;19.60;;;;;;5052903;28;20173;-67
2020/12/08 00:10:07;;;;;;;13.77;9.90;;;4.30;1.00;;;;;;5052738;28;20204;-67
2020/12/08 00:12:33;;;;;;;13.87;9.90;;;4.30;99.90;;;;;;5052484;28;20817;-66
2020/12/08 00:14:58;;;;;;;13.30;9.80;;;4.40;99.90;;;;;;5052949;28;20807;-67
2020/12/08 00:17:24;;;;;;;17.67;11.00;;;4.30;99.90;;;;;;5052739;28;20283;-67
2020/12/08 00:19:50;;;;;;;17.33;11.87;;;4.30;99.90;;;;;;5052729;28;20192;-67
2020/12/08 00:22:15;;;;;;;16.00;11.27;;;4.50;99.90;;;;;;5052423;28;20408;-67
2020/12/08 00:24:41;;;;;;;17.87;11.53;;;4.50;42.90;;;;;;5052936;28;20244;-67
2020/12/08 00:27:10;;;;;;;17.27;11.17;;;4.20;99.90;;;;;;5052422;28;20669;-67
2020/12/08 00:29:37;;;;;;;15.60;10.38;;;4.40;99.90;;;;;;5052261;28;20216;-67
2020/12/08 00:32:04;;;;;;;18.77;11.77;;;4.40;99.90;;;;;;5052567;28;20169;-68
2020/12/08 00:34:29;;;;;;;13.35;11.25;;;4.70;99.90;;;;;;5052857;28;20499;-67
2020/12/08 00:36:55;;;;;;;16.50;11.30;;;4.60;1.00;;;;;;5053465;28;20247;-67
2020/12/08 00:39:20;;;;;;;14.83;10.83;;;4.70;1.00;;;;;;5056244;28;20572;-67
2020/12/08 00:41:47;;;;;;;17.30;12.30;;;4.50;1.00;;;;;;5055922;28;20192;-67
2020/12/08 00:44:13;;;;;;;19.35;12.07;;;4.70;1.00;;;;;;5055852;28;20169;-67
2020/12/08 00:46:38;;;;;;;14.33;12.30;;;4.90;1.00;;;;;;5056038;28;20176;-67
2020/12/08 00:49:05;;;;;;;17.43;11.80;;;4.90;99.90;;;;;;5055995;28;20389;-67
2020/12/08 00:51:31;;;;;;;17.48;12.60;;;4.70;1.00;;;;;;5055717;28;20248;-67
2020/12/08 00:53:56;;;;;;;22.20;12.50;;;4.80;99.90;;;;;;5056238;28;20172;-67
2020/12/08 00:56:22;;;;;;;21.17;12.37;;;4.70;1.00;;;;;;5055526;28;20208;-67
2020/12/08 00:58:47;;;;;;;19.23;12.90;;;4.90;99.90;;;;;;5056139;28;20208;-67
2020/12/08 01:01:13;;;;;;;17.80;12.43;;;4.90;1.00;;;;;;5055538;28;20193;-67
2020/12/08 01:03:38;;;;;;;21.17;13.20;;;5.10;1.00;;;;;;5056310;28;20183;-67
2020/12/08 01:06:08;;;;;;;17.80;12.60;;;5.20;99.90;;;;;;5055389;28;20177;-67
2020/12/08 01:08:34;;;;;;;17.10;12.60;;;5.20;99.90;;;;;;5055966;28;20637;-67
2020/12/08 01:11:00;;;;;;;18.33;12.17;;;5.10;99.90;;;;;;5055198;28;20212;-67
2020/12/08 01:13:26;;;;;;;17.25;12.43;;;5.20;99.90;;;;;;5055360;28;20172;-67
2020/12/08 01:15:52;;;;;;;19.17;12.90;;;5.30;99.90;;;;;;5055447;28;20592;-67
2020/12/08 01:18:17;;;;;;;17.65;13.25;;;5.40;99.90;;;;;;5055470;28;20537;-68
2020/12/08 01:20:43;;;;;;;17.53;12.23;;;5.50;99.90;;;;;;5055145;28;20188;-67
2020/12/08 01:23:08;;;;;;;16.80;13.17;;;5.30;99.90;;;;;;5055371;28;20173;-67
2020/12/08 01:25:34;;;;;;;17.23;12.17;;;5.40;99.90;;;;;;5055159;28;20168;-67
2020/12/08 01:28:00;;;;;;;17.00;11.67;;;5.50;99.90;;;;;;5055020;28;20172;-67
2020/12/08 01:30:26;;;;;;;16.30;11.57;;;5.00;99.90;;;;;;5054970;28;20200;-67
2020/12/08 01:32:52;;;;;;;17.77;13.93;;;5.00;99.90;;;;;;5054989;28;20180;-67
2020/12/08 01:35:18;;;;;;;20.95;14.02;;;5.10;99.90;;;;;;5055124;28;20165;-67
2020/12/08 01:37:47;;;;;;;18.17;12.03;;;5.30;99.90;;;;;;5055029;28;20193;-67
2020/12/08 01:40:13;;;;;;;17.63;12.45;;;5.40;99.90;;;;;;5054741;28;20271;-67
2020/12/08 01:42:38;;;;;;;17.88;12.38;;;5.40;99.90;;;;;;5055017;28;20214;-67
2020/12/08 01:45:07;;;;;;;17.20;13.10;;;5.30;99.90;;;;;;5054703;28;20164;-67
2020/12/08 01:47:33;;;;;;;18.77;13.73;;;5.20;99.90;;;;;;5055222;28;20507;-67
2020/12/08 01:49:59;;;;;;;19.95;13.88;;;5.00;99.90;;;;;;5053872;28;20276;-67
2020/12/08 01:52:26;;;;;;;18.40;12.77;;;5.10;99.90;;;;;;5054866;28;20300;-67
2020/12/08 01:54:53;;;;;;;16.65;12.50;;;5.20;99.90;;;;;;5054642;28;20173;-67
2020/12/08 01:57:18;;;;;;;20.38;13.93;;;5.30;99.90;;;;;;5054669;28;20203;-69
2020/12/08 01:59:44;;;;;;;15.60;12.07;;;5.30;99.90;;;;;;5054358;28;20189;-67
2020/12/08 02:02:10;;;;;;;17.37;12.97;;;5.50;99.90;;;;;;5054351;28;20203;-67
2020/12/08 02:04:36;;;;;;;17.33;12.43;;;5.30;99.90;;;;;;5053128;28;20165;-67
2020/12/08 02:07:02;;;;;;;17.60;13.32;;;5.30;99.90;;;;;;5054523;28;20389;-67
2020/12/08 02:09:28;;;;;;;18.43;14.33;;;5.40;99.90;;;;;;5054266;28;20200;-68
2020/12/08 02:11:53;;;;;;;20.43;14.20;;;5.30;99.90;;;;;;5054269;28;20382;-67
2020/12/08 02:14:19;;;;;;;17.60;13.60;;;5.30;99.90;;;;;;5054484;28;20177;-67
2020/12/08 02:16:44;;;;;;;18.63;13.70;;;5.40;99.90;;;;;;5054048;28;20193;-68
2020/12/08 02:19:10;;;;;;;17.73;13.23;;;5.40;99.90;;;;;;5054454;28;20251;-67
2020/12/08 02:21:35;;;;;;;17.43;12.77;;;5.40;99.90;;;;;;5054252;28;20173;-67
2020/12/08 02:24:02;;;;;;;20.53;13.80;;;5.30;99.90;;;;;;5054046;28;20165;-67
2020/12/08 02:26:28;;;;;;;19.50;13.15;;;5.50;99.90;;;;;;5053961;28;20665;-68
2020/12/08 02:28:54;;;;;;;17.73;12.87;;;5.60;99.90;;;;;;5053806;28;20184;-67
2020/12/08 02:31:20;;;;;;;18.25;13.05;;;5.60;99.90;;;;;;5053820;28;20188;-67
2020/12/08 02:33:45;;;;;;;17.87;12.97;;;5.60;99.90;;;;;;5054017;28;20200;-67
2020/12/08 02:36:11;;;;;;;18.90;14.40;;;5.80;99.90;;;;;;5053755;28;20692;-67
2020/12/08 02:38:37;;;;;;;18.57;12.90;;;5.60;99.90;;;;;;5053715;28;20248;-67
2020/12/08 02:41:04;;;;;;;18.80;13.00;;;5.60;99.90;;;;;;5054089;28;20189;-67
2020/12/08 02:43:30;;;;;;;17.65;13.60;;;5.70;99.90;;;;;;5053905;28;20386;-67
2020/12/08 02:46:01;;;;;;;19.17;14.07;;;5.50;99.90;;;;;;5053528;28;20661;-68
2020/12/08 02:48:27;;;;;;;20.15;15.25;;;5.40;99.90;;;;;;5053535;28;20183;-68
2020/12/08 02:50:52;;;;;;;17.30;13.27;;;5.30;99.90;;;;;;5053534;28;20184;-68
2020/12/08 02:53:18;;;;;;;18.23;12.20;;;5.30;99.90;;;;;;5053767;28;20169;-67
2020/12/08 02:55:48;;;;;;;22.47;13.83;;;5.50;99.90;;;;;;5053332;28;20180;-68
2020/12/08 02:58:15;;;;;;;15.95;12.77;;;5.50;99.90;;;;;;5053618;28;20473;-67
2020/12/08 03:00:41;;;;;;;19.90;13.50;;;5.40;99.90;;;;;;5052590;28;20191;-67
2020/12/08 03:03:06;;;;;;;15.73;12.20;;;5.40;99.90;;;;;;5053175;28;20169;-67
2020/12/08 03:05:32;;;;;;;17.60;13.07;;;5.30;99.90;;;;;;5053577;28;20176;-68
2020/12/08 03:07:58;;;;;;;22.50;13.03;;;5.50;99.90;;;;;;5053328;28;20759;-68
2020/12/08 03:10:23;;;;;;;18.43;13.20;;;5.40;99.90;;;;;;5053187;28;20212;-68
2020/12/08 03:12:49;;;;;;;17.13;13.13;;;5.50;99.90;;;;;;5053208;28;20169;-68
2020/12/08 03:15:14;;;;;;;18.07;13.47;;;5.50;99.90;;;;;;5053396;28;20215;-68
2020/12/08 03:17:40;;;;;;;20.63;13.77;;;5.80;99.90;;;;;;5053296;28;20592;-68
2020/12/08 03:20:06;;;;;;;19.83;12.07;;;5.80;99.90;;;;;;5053171;28;20231;-68
2020/12/08 03:22:32;;;;;;;20.00;13.10;;;5.70;99.90;;;;;;5052967;28;20193;-67
2020/12/08 03:24:57;;;;;;;16.83;12.63;;;5.70;99.90;;;;;;5053261;28;20169;-68
2020/12/08 03:27:23;;;;;;;15.70;11.80;;;5.60;99.90;;;;;;5053531;28;20173;-68
2020/12/08 03:29:49;;;;;;;14.23;11.03;;;5.60;99.90;;;;;;5052925;28;20692;-69
2020/12/08 03:32:14;;;;;;;34.33;14.60;;;5.90;99.90;;;;;;5052955;28;20510;-68
2020/12/08 03:34:40;;;;;;;16.63;12.50;;;5.80;99.90;;;;;;5051711;28;20168;-68
2020/12/08 03:37:05;;;;;;;17.70;13.60;;;5.60;99.90;;;;;;5053083;28;20199;-68
2020/12/08 03:39:31;;;;;;;16.87;12.83;;;5.80;99.90;;;;;;5051585;28;20204;-66
2020/12/08 03:41:58;;;;;;;15.03;11.50;;;5.90;99.90;;;;;;5052841;28;20202;-68
2020/12/08 03:44:23;;;;;;;20.80;12.27;;;5.80;99.90;;;;;;5053024;28;20802;-68
2020/12/08 03:46:49;;;;;;;21.23;13.07;;;5.70;99.90;;;;;;5052950;28;20251;-68
2020/12/08 03:49:15;;;;;;;17.17;13.17;;;5.60;99.90;;;;;;5053437;28;20518;-68
2020/12/08 03:51:40;;;;;;;19.00;13.20;;;5.60;99.90;;;;;;5053022;28;20230;-68
2020/12/08 03:54:06;;;;;;;20.10;12.80;;;5.60;99.90;;;;;;5052766;28;20184;-67
2020/12/08 03:56:31;;;;;;;20.47;13.30;;;5.80;99.90;;;;;;5052883;28;20291;-67
2020/12/08 03:58:57;;;;;;;19.87;13.70;;;5.80;99.90;;;;;;5052766;28;20176;-67
2020/12/08 04:01:22;;;;;;;19.10;12.63;;;5.70;99.90;;;;;;5052518;28;20188;-67
2020/12/08 04:03:50;;;;;;;16.23;12.80;;;5.60;99.90;;;;;;5052769;28;20169;-68
2020/12/08 04:06:16;;;;;;;16.48;13.02;;;5.80;99.90;;;;;;5052808;28;20177;-67
2020/12/08 04:08:42;;;;;;;15.60;12.20;;;5.70;99.90;;;;;;5052509;28;20176;-67
2020/12/08 04:11:09;;;;;;;22.55;12.90;;;5.40;99.90;;;;;;5052515;28;20212;-67
2020/12/08 04:13:34;;;;;;;21.25;13.32;;;5.30;99.90;;;;;;5056457;28;20713;-67
2020/12/08 04:16:00;;;;;;;19.43;12.77;;;5.30;99.90;;;;;;5056821;28;20259;-67
2020/12/08 04:18:26;;;;;;;22.33;13.70;;;5.30;99.90;;;;;;5056643;28;20169;-67
2020/12/08 04:20:52;;;;;;;21.30;14.00;;;5.10;99.90;;;;;;5056362;28;20410;-67
2020/12/08 04:23:18;;;;;;;15.33;11.50;;;5.00;1.00;;;;;;5056532;28;20165;-67
2020/12/08 04:25:46;;;;;;;19.35;13.18;;;4.90;1.00;;;;;;5056518;28;20223;-67
2020/12/08 04:28:11;;;;;;;17.52;12.70;;;4.90;87.80;;;;;;5056183;28;20268;-67
2020/12/08 04:30:38;;;;;;;17.17;13.13;;;5.00;69.20;;;;;;5056198;28;20275;-67
2020/12/08 04:33:05;;;;;;;16.40;12.10;;;5.00;1.00;;;;;;5056108;28;20168;-67
2020/12/08 04:35:30;;;;;;;19.52;13.90;;;4.80;1.00;;;;;;5056533;28;20519;-68
2020/12/08 04:37:56;;;;;;;19.10;12.90;;;4.80;99.90;;;;;;5056029;28;20199;-67
2020/12/08 04:40:22;;;;;;;17.77;12.87;;;5.10;17.50;;;;;;5055867;28;20250;-68
2020/12/08 04:42:49;;;;;;;21.77;13.90;;;4.80;99.90;;;;;;5056260;28;20561;-67
2020/12/08 04:45:17;;;;;;;20.13;13.40;;;4.90;99.90;;;;;;5055796;28;20641;-67
2020/12/08 04:47:44;;;;;;;18.45;13.70;;;5.10;99.90;;;;;;5056044;28;20603;-67
2020/12/08 04:50:12;;;;;;;20.88;14.43;;;5.10;98.50;;;;;;5055806;28;20673;-67
2020/12/08 04:52:38;;;;;;;17.75;12.57;;;5.10;99.90;;;;;;5055957;28;20180;-67
2020/12/08 04:55:03;;;;;;;16.92;13.20;;;5.00;99.90;;;;;;5055726;28;20518;-67
2020/12/08 04:57:29;;;;;;;21.63;13.40;;;5.10;99.90;;;;;;5055633;28;20188;-67
2020/12/08 05:00:24;;;;;;;17.50;12.83;;;5.10;99.90;;;;;;5055867;28;20192;-67
2020/12/08 05:02:56;;;;;;;15.80;11.90;;;5.30;1.00;;;;;;5046898;28;20255;-67
2020/12/08 05:05:22;;;;;;;20.77;12.88;;;5.10;1.00;;;;;;5055685;28;20200;-68
2020/12/08 05:07:49;;;;;;;18.13;12.45;;;5.20;1.00;;;;;;5055372;28;20263;-66
2020/12/08 05:10:26;;;;;;;14.57;11.35;;;5.20;1.00;;;;;;5090428;22;20683;-68
2020/12/08 05:12:54;;;;;;;18.42;12.90;;;5.20;1.00;;;;;;5095759;28;20525;-68
2020/12/08 05:15:20;;;;;;;14.48;11.75;;;5.10;99.90;;;;;;5095657;28;20167;-67
2020/12/08 05:17:45;;;;;;;14.33;10.83;;;5.50;99.90;;;;;;5095519;28;20225;-68
2020/12/08 05:20:13;;;;;;;16.30;11.30;;;5.20;99.90;;;;;;5095477;28;20195;-68
2020/12/08 05:22:51;;;;;;;14.40;10.60;;;5.30;99.90;;;;;;5095115;28;20175;-68
2020/12/08 05:25:17;;;;;;;14.93;10.85;;;5.30;99.90;;;;;;5095364;28;20185;-68
2020/12/08 05:27:49;;;;;;;19.80;10.67;;;5.30;99.90;;;;;;5095329;28;20167;-67
2020/12/08 05:30:15;;;;;;;16.20;10.93;;;5.50;99.90;;;;;;5095390;28;20240;-68
2020/12/08 05:32:41;;;;;;;20.80;10.37;;;5.60;99.90;;;;;;5095227;28;20175;-68
2020/12/08 05:35:15;;;;;;;13.63;10.25;;;5.70;99.90;;;;;;5095250;28;20423;-68
2020/12/08 05:37:46;;;;;;;14.85;10.38;;;5.50;99.90;;;;;;5095547;28;20539;-68
2020/12/08 05:40:20;;;;;;;13.98;10.02;;;5.50;99.90;;;;;;5095166;28;20232;-68
2020/12/08 05:42:48;;;;;;;13.40;9.90;;;5.80;99.90;;;;;;5095717;28;20148;-68
2020/12/08 05:45:16;;;;;;;16.80;9.93;;;5.70;93.70;;;;;;5094968;28;20172;-68
2020/12/08 05:47:54;;;;;;;14.02;10.13;;;5.50;99.90;;;;;;5095016;28;20513;-68
2020/12/08 05:50:21;;;;;;;16.80;10.18;;;5.60;99.90;;;;;;5095058;28;20210;-68
2020/12/08 05:52:52;;;;;;;14.32;10.55;;;5.70;99.90;;;;;;5094865;28;20170;-68
2020/12/08 05:55:21;;;;;;;13.32;9.77;;;5.50;99.90;;;;;;5094820;28;20188;-68
2020/12/08 05:57:47;;;;;;;13.90;9.80;;;5.60;99.90;;;;;;5094939;28;20195;-69
2020/12/08 06:00:27;;;;;;;14.52;11.07;;;5.70;99.90;;;;;;5094697;28;20195;-68
2020/12/08 06:02:54;;;;;;;14.35;10.18;;;5.80;99.90;;;;;;5094624;28;20288;-68
2020/12/08 06:05:32;;;;;;;13.38;9.18;;;6.00;26.30;;;;;;5094399;28;20701;-68
2020/12/08 06:07:58;;;;;;;14.63;10.40;;;5.80;46.50;;;;;;5094780;28;20171;-68
2020/12/08 06:10:24;;;;;;;17.23;9.98;;;5.80;43.90;;;;;;5094543;28;20203;-67
2020/12/08 06:12:58;;;;;;;18.88;10.65;;;5.70;93.90;;;;;;5094596;28;20197;-68
2020/12/08 06:15:25;;;;;;;15.38;9.35;;;5.80;77.50;;;;;;5094250;28;20175;-67
2020/12/08 06:17:51;;;;;;;13.07;9.90;;;5.90;35.10;;;;;;5094069;28;20195;-68
2020/12/08 06:20:16;;;;;;;12.23;9.23;;;6.00;50.10;;;;;;5094120;28;20186;-68
2020/12/08 06:22:53;;;;;;;12.83;9.03;;;6.20;4.10;;;;;;5094078;28;20466;-68
2020/12/08 06:25:19;;;;;;;15.57;10.55;;;6.10;1.00;;;;;;5094289;28;20385;-68
2020/12/08 06:27:44;;;;;;;13.43;9.63;;;6.00;1.00;;;;;;5094176;28;20523;-68
2020/12/08 06:30:10;;;;;;;17.37;10.10;;;6.20;1.00;;;;;;5094036;28;20187;-67
2020/12/08 06:32:35;;;;;;;12.70;9.57;;;6.30;1.00;;;;;;5094093;28;20263;-67
2020/12/08 06:35:05;;;;;;;17.67;9.70;;;5.90;1.00;;;;;;5093942;28;20174;-68
2020/12/08 06:37:31;;;;;;;11.88;9.30;;;5.80;1.00;;;;;;5093403;28;20275;-67
2020/12/08 06:40:10;;;;;;;10.93;8.43;;;6.00;1.00;;;;;;5093509;28;20606;-67
2020/12/08 06:42:36;;;;;;;11.05;8.55;;;5.90;1.00;;;;;;5093721;28;20551;-66
2020/12/08 06:45:06;;;;;;;16.17;9.43;;;5.90;1.00;;;;;;5093384;28;20164;-68
2020/12/08 06:47:32;;;;;;;12.18;8.70;;;5.90;1.00;;;;;;5093791;28;20638;-68
2020/12/08 06:49:58;;;;;;;10.83;8.13;;;6.00;1.00;;;;;;5093475;28;20273;-67
2020/12/08 06:52:23;;;;;;;12.10;8.00;;;6.10;1.00;;;;;;5093887;28;20168;-67
2020/12/08 06:54:59;;;;;;;16.40;8.83;;;6.10;1.00;;;;;;5094603;28;20183;-67
2020/12/08 06:57:25;;;;;;;9.55;7.72;;;6.00;1.00;;;;;;5093994;28;20199;-68
2020/12/08 07:00:06;;;;;;;9.53;7.30;;;6.00;1.00;;;;;;5093233;28;20256;-67
2020/12/08 07:02:48;;;;;;;9.45;7.75;;;6.10;1.00;;;;;;5093215;28;20163;-68
2020/12/08 07:05:16;;;;;;;13.13;8.77;;;6.10;1.00;;;;;;5093314;28;20156;-67
2020/12/08 07:07:43;;;;;;;13.98;9.20;;;6.10;1.00;;;;;;5093126;28;20194;-67
2020/12/08 07:10:09;;;;;;;10.60;8.35;;;6.00;1.00;;;;;;5093016;28;20743;-67
2020/12/08 07:12:46;;;;;;;17.83;7.90;;;6.00;1.00;;;;;;5093418;28;20258;-67
2020/12/08 07:15:14;;;;;;;13.85;8.23;;;5.80;1.00;;;;;;5093252;28;20398;-67
2020/12/08 07:17:40;;;;;;;9.95;7.75;;;5.70;1.00;;;;;;5093076;28;20244;-67
2020/12/08 07:20:05;;;;;;;12.30;8.00;;;5.80;1.00;;;;;;5093183;28;20676;-68
2020/12/08 07:22:45;;;;;;;10.17;7.67;;;6.00;1.00;;;;;;5092860;28;20324;-68
2020/12/08 07:25:12;;;;;;;13.88;8.30;;;6.00;1.00;;;;;;5093152;28;20163;-65
2020/12/08 07:27:43;;;;;;;13.43;8.80;;;5.80;1.00;;;;;;5092909;28;20191;-67
2020/12/08 07:30:09;;;;;;;12.55;7.93;;;5.80;1.00;;;;;;5093049;28;20282;-68
2020/12/08 07:32:34;;;;;;;16.05;9.68;;;5.70;1.00;;;;;;5092931;28;20167;-68
2020/12/08 07:35:00;;;;;;;14.30;10.07;;;5.70;1.00;;;;;;5092911;28;20228;-68
2020/12/08 07:37:26;;;;;;;11.80;9.23;;;5.50;1.00;;;;;;5092685;28;20697;-68
2020/12/08 07:39:53;;;;;;;12.23;9.30;;;5.70;1.00;;;;;;5092784;28;20274;-68
2020/12/08 07:42:18;;;;;;;15.95;11.13;;;5.90;1.00;;;;;;5091594;28;20172;-68
2020/12/08 07:44:58;;;;;;;15.40;10.90;;;5.80;1.00;;;;;;5093240;28;20627;-68
2020/12/08 07:47:23;;;;;;;14.70;9.15;;;5.80;3.30;;;;;;5095278;28;20620;-67
2020/12/08 07:49:49;;;;;;;15.23;10.00;;;5.60;4.30;;;;;;5096833;28;20229;-67
2020/12/08 07:52:18;;;;;;;13.73;9.53;;;5.50;20.40;;;;;;5097053;28;20175;-67
2020/12/08 07:54:44;;;;;;;14.68;10.02;;;5.60;42.60;;;;;;5096696;28;20180;-69
2020/12/08 07:57:10;;;;;;;18.55;9.98;;;5.60;2.30;;;;;;5096259;28;20195;-67
2020/12/08 07:59:37;;;;;;;17.15;10.60;;;5.80;3.20;;;;;;5096786;28;20164;-68
2020/12/08 08:02:03;;;;;;;12.80;10.15;;;5.50;82.70;;;;;;5097249;28;20280;-68
2020/12/08 08:04:29;;;;;;;14.33;10.60;;;5.30;99.90;;;;;;5097035;28;20209;-68
2020/12/08 08:06:55;;;;;;;14.05;10.75;;;5.50;94.20;;;;;;5096939;28;20250;-66
2020/12/08 08:09:21;;;;;;;12.13;9.73;;;5.70;6.50;;;;;;5096651;28;20203;-67
2020/12/08 08:11:46;;;;;;;23.60;11.80;;;5.80;16.40;;;;;;5096655;28;20289;-68
2020/12/08 08:14:12;;;;;;;18.80;11.30;;;5.50;28.30;;;;;;5096490;28;20175;-68
2020/12/08 08:16:37;;;;;;;14.60;10.67;;;5.60;73.60;;;;;;5096347;28;20286;-68
2020/12/08 08:19:03;;;;;;;17.47;10.17;;;5.60;95.00;;;;;;5096450;28;20183;-67
2020/12/08 08:21:29;;;;;;;12.83;9.27;;;5.40;99.90;;;;;;5096365;28;20191;-65
2020/12/08 08:23:57;;;;;;;23.23;11.27;;;5.40;99.90;;;;;;5096310;28;20159;-67
2020/12/08 08:26:23;;;;;;;15.45;10.18;;;5.70;99.90;;;;;;5096276;28;20180;-67
2020/12/08 08:28:48;;;;;;;20.33;12.10;;;5.50;99.90;;;;;;5095833;28;20285;-67
2020/12/08 08:31:14;;;;;;;15.70;11.87;;;5.60;99.90;;;;;;5096102;28;20200;-67
2020/12/08 08:33:39;;;;;;;28.83;11.00;;;5.60;99.90;;;;;;5095430;28;20176;-66
2020/12/08 08:36:05;;;;;;;16.53;10.33;;;5.30;99.90;;;;;;5095454;28;20168;-67
2020/12/08 08:38:30;;;;;;;15.50;10.00;;;5.20;99.90;;;;;;5095919;28;20172;-67
2020/12/08 08:40:57;;;;;;;16.70;11.40;;;5.40;99.90;;;;;;5095913;28;20180;-67
2020/12/08 08:43:23;;;;;;;14.10;11.05;;;5.30;99.90;;;;;;5095980;28;20706;-66
2020/12/08 08:45:50;;;;;;;19.88;11.05;;;5.30;99.90;;;;;;5095723;28;20206;-66
2020/12/08 08:48:15;;;;;;;21.95;11.40;;;5.60;99.90;;;;;;5096040;28;20180;-67
2020/12/08 08:50:41;;;;;;;24.97;11.33;;;5.60;78.10;;;;;;5095576;28;20213;-68
2020/12/08 08:53:07;;;;;;;14.77;9.63;;;5.60;99.90;;;;;;5095512;28;20172;-69
2020/12/08 08:55:32;;;;;;;17.53;11.17;;;5.70;43.20;;;;;;5095904;28;20179;-69
2020/12/08 08:57:58;;;;;;;21.00;11.17;;;6.00;10.60;;;;;;5096083;28;20206;-69
2020/12/08 09:00:23;;;;;;;17.63;11.30;;;6.10;3.70;;;;;;5095760;28;20194;-68
2020/12/08 09:02:49;;;;;;;28.33;10.97;;;6.20;1.00;;;;;;5095814;28;20211;-69
2020/12/08 09:05:14;;;;;;;29.60;14.00;;;6.10;1.00;;;;;;5095480;28;20242;-69
2020/12/08 09:07:40;;;;;;;22.30;11.60;;;6.00;8.50;;;;;;5095368;28;20172;-68
2020/12/08 09:10:06;;;;;;;23.03;11.60;;;6.10;9.20;;;;;;5095209;28;20199;-68
2020/12/08 09:12:32;;;;;;;15.20;10.10;;;6.10;1.00;;;;;;5095431;28;20827;-68
2020/12/08 09:15:00;;;;;;;21.90;11.53;;;6.30;1.00;;;;;;5095600;28;20201;-68
2020/12/08 09:17:25;;;;;;;19.65;11.43;;;6.30;1.00;;;;;;5095537;28;20199;-69
2020/12/08 09:19:54;;;;;;;19.67;10.77;;;6.40;1.00;;;;;;5110802;28;20611;-69
2020/12/08 09:22:21;;;;;;;13.93;10.30;;;6.50;1.00;;;;;;5095246;28;20259;-69
2020/12/08 09:24:47;;;;;;;26.83;11.40;;;6.40;1.00;;;;;;5095120;28;20199;-68
2020/12/08 09:27:14;;;;;;;24.43;12.13;;;6.40;1.00;;;;;;5094985;28;20587;-68
2020/12/08 09:29:39;;;;;;;22.52;10.38;;;6.40;1.00;;;;;;5095413;28;20229;-68
2020/12/08 09:32:05;;;;;;;20.30;10.93;;;6.10;1.00;;;;;;5094890;28;20171;-68
2020/12/08 09:34:31;;;;;;;13.27;9.50;;;6.00;1.00;;;;;;5094783;28;20413;-68
2020/12/08 09:36:57;;;;;;;15.03;9.93;;;6.30;1.00;;;;;;5094597;28;20328;-68
2020/12/08 09:39:24;;;;;;;25.48;10.98;;;6.40;1.00;;;;;;5095922;28;20163;-68
2020/12/08 09:41:50;;;;;;;24.13;9.15;;;6.20;1.00;;;;;;5094548;28;20741;-68
2020/12/08 09:44:15;;;;;;;16.53;9.20;;;6.40;1.00;;;;;;5094726;28;20172;-69
2020/12/08 09:46:43;;;;;;;16.33;10.43;;;6.30;1.00;;;;;;5094522;28;20406;-68
2020/12/08 09:49:09;;;;;;;37.30;10.50;;;6.30;1.00;;;;;;5094730;28;20172;-67
2020/12/08 09:51:35;;;;;;;29.95;10.63;;;6.50;1.00;;;;;;5094631;28;20195;-68
2020/12/08 09:54:01;;;;;;;45.40;10.20;;;6.80;1.00;;;;;;5094501;28;20244;-68
2020/12/08 09:56:26;;;;;;;22.57;9.70;;;6.60;1.00;;;;;;5094737;28;20191;-68
2020/12/08 09:58:53;;;;;;;14.90;8.13;;;6.50;1.00;;;;;;5094102;28;20376;-68
2020/12/08 10:01:34;;;;;;;13.35;8.77;;;6.50;1.00;;;;;;5094508;28;20192;-68
2020/12/08 10:04:01;;;;;;;25.08;10.10;;;6.80;1.00;;;;;;5094831;28;20584;-68
2020/12/08 10:06:27;;;;;;;24.92;9.68;;;6.50;1.00;;;;;;5094238;28;20664;-68
2020/12/08 10:08:54;;;;;;;22.52;11.35;;;6.80;1.00;;;;;;5094394;28;20551;-68
2020/12/08 10:11:23;;;;;;;15.32;8.65;;;7.00;1.00;;;;;;5093914;28;20557;-68
2020/12/08 10:13:50;;;;;;;21.67;9.15;;;7.10;1.00;;;;;;5094078;28;20712;-68
2020/12/08 10:16:23;;;;;;;13.65;8.32;;;7.30;1.00;;;;;;5094521;28;20597;-68
2020/12/08 10:18:50;;;;;;;31.55;9.35;;;7.40;1.00;;;;;;5094462;28;20209;-68
2020/12/08 10:21:20;;;;;;;15.20;8.77;;;7.20;1.00;;;;;;5093840;28;20679;-68
2020/12/08 10:23:45;;;;;;;19.35;8.45;;;7.40;1.00;;;;;;5094159;28;20206;-68
2020/12/08 10:26:11;;;;;;;21.10;9.40;;;7.50;1.00;;;;;;5094458;28;20644;-68
2020/12/08 10:28:37;;;;;;;15.30;8.30;;;7.60;1.00;;;;;;5093977;28;20174;-68
2020/12/08 10:31:03;;;;;;;14.90;7.60;;;7.60;1.00;;;;;;5093654;28;20195;-67
2020/12/08 10:33:29;;;;;;;13.70;8.10;;;7.70;1.00;;;;;;5093600;28;20171;-68
2020/12/08 10:35:54;;;;;;;17.60;8.80;;;7.50;1.00;;;;;;5093484;28;20174;-68
2020/12/08 10:38:20;;;;;;;21.53;8.60;;;7.70;1.00;;;;;;5093894;28;20200;-68
2020/12/08 10:40:45;;;;;;;17.60;7.43;;;7.60;1.00;;;;;;5094258;28;20236;-68
2020/12/08 10:43:11;;;;;;;9.27;7.07;;;7.80;1.00;;;;;;5092443;28;20171;-68
2020/12/08 10:45:37;;;;;;;37.83;10.23;;;7.80;1.00;;;;;;5093322;28;20620;-65
2020/12/08 10:48:02;;;;;;;47.20;8.50;;;7.80;1.00;;;;;;5093921;28;20608;-68
2020/12/08 10:50:28;;;;;;;29.70;8.77;;;7.60;1.00;;;;;;5093638;28;20192;-68
2020/12/08 10:52:53;;;;;;;17.43;7.40;;;7.70;1.00;;;;;;5093550;28;20562;-68
2020/12/08 10:55:19;;;;;;;27.63;8.97;;;8.40;1.00;;;;;;5093286;28;20579;-68
2020/12/08 10:57:45;;;;;;;28.83;7.30;;;8.00;1.00;;;;;;5093592;28;20211;-68
2020/12/08 11:00:10;;;;;;;24.93;6.27;;;8.20;1.00;;;;;;5093083;28;20671;-68
2020/12/08 11:02:36;;;;;;;15.67;5.53;;;8.40;1.00;;;;;;5093274;28;20176;-66
2020/12/08 11:05:04;;;;;;;17.03;7.20;;;8.60;1.00;;;;;;5093364;28;20561;-68
2020/12/08 11:07:30;;;;;;;11.80;5.38;;;8.50;1.00;;;;;;5092758;28;20666;-67
2020/12/08 11:09:56;;;;;;;19.73;7.20;;;8.70;1.00;;;;;;5093823;28;20206;-68
2020/12/08 11:12:21;;;;;;;17.10;6.97;;;8.80;1.00;;;;;;5093156;28;20572;-68
2020/12/08 11:14:47;;;;;;;16.47;7.20;;;8.80;1.00;;;;;;5093040;28;20168;-68
2020/12/08 11:17:13;;;;;;;15.97;7.50;;;8.80;1.00;;;;;;5093394;28;20219;-68
2020/12/08 11:19:39;;;;;;;9.23;5.70;;;8.70;1.00;;;;;;5093750;28;20463;-68
2020/12/08 11:22:05;;;;;;;11.40;6.60;;;9.00;1.00;;;;;;5093742;28;20394;-68
2020/12/08 11:24:31;;;;;;;11.25;7.03;;;9.10;1.00;;;;;;5093878;28;20190;-68
2020/12/08 11:26:56;;;;;;;8.10;5.13;;;8.50;1.00;;;;;;5094544;28;20175;-68
2020/12/08 11:29:22;;;;;;;5.50;4.50;;;8.50;1.00;;;;;;5093174;28;20172;-68
2020/12/08 11:31:50;;;;;;;10.20;6.07;;;8.20;1.00;;;;;;5092971;28;20267;-66
2020/12/08 11:34:16;;;;;;;16.65;7.22;;;8.00;1.00;;;;;;5094012;28;20208;-67
2020/12/08 11:36:41;;;;;;;23.60;7.40;;;8.50;1.00;;;;;;5092716;28;20201;-66
2020/12/08 11:39:07;;;;;;;44.73;9.37;;;8.20;1.00;;;;;;5092686;28;20237;-67
2020/12/08 11:41:32;;;;;;;34.10;8.50;;;8.00;1.00;;;;;;5092703;28;20186;-67
2020/12/08 11:43:58;;;;;;;28.47;7.43;;;8.10;1.00;;;;;;5091089;28;20175;-68
2020/12/08 11:46:23;;;;;;;20.67;7.37;;;8.20;1.00;;;;;;5093056;28;20225;-68
2020/12/08 11:48:49;;;;;;;12.80;6.90;;;8.10;1.00;;;;;;5092620;28;20179;-68
2020/12/08 11:51:14;;;;;;;33.70;7.30;;;7.90;1.00;;;;;;5092835;28;20240;-67
2020/12/08 11:53:40;;;;;;;8.50;5.23;;;8.20;1.00;;;;;;5092640;28;20171;-67
2020/12/08 11:56:05;;;;;;;15.60;5.83;;;8.50;1.00;;;;;;5092495;28;20179;-67
2020/12/08 11:58:31;;;;;;;10.17;6.43;;;8.40;1.00;;;;;;5092338;28;20254;-66
2020/12/08 12:00:57;;;;;;;11.37;6.00;;;8.50;1.00;;;;;;5092313;28;20610;-67
2020/12/08 12:03:22;;;;;;;14.73;5.13;;;8.60;1.00;;;;;;5093874;28;20168;-67
2020/12/08 12:05:48;;;;;;;46.50;17.40;;;8.50;1.00;;;;;;5092545;28;20185;-67
2020/12/08 12:08:13;;;;;;;30.47;7.43;;;8.10;1.00;;;;;;5092530;28;20171;-66
2020/12/08 12:10:40;;;;;;;14.00;5.70;;;7.70;1.00;;;;;;5092694;28;20245;-67
2020/12/08 12:13:06;;;;;;;15.43;5.10;;;7.90;1.00;;;;;;5092674;28;20163;-66
2020/12/08 12:15:31;;;;;;;16.60;6.03;;;8.10;1.00;;;;;;5092648;28;20179;-67
2020/12/08 12:17:57;;;;;;;18.23;6.63;;;8.30;1.00;;;;;;5092297;28;20202;-66
2020/12/08 12:20:22;;;;;;;25.20;6.77;;;8.20;1.00;;;;;;5092112;28;20184;-67
2020/12/08 12:22:48;;;;;;;26.10;6.63;;;8.10;1.00;;;;;;5091745;28;20224;-67
2020/12/08 12:25:13;;;;;;;8.40;5.57;;;7.90;1.00;;;;;;5091488;28;20165;-69
2020/12/08 12:27:39;;;;;;;20.53;6.60;;;7.60;1.00;;;;;;5092066;28;20172;-69
2020/12/08 12:30:04;;;;;;;14.50;5.40;;;7.80;1.00;;;;;;5092142;28;20187;-67
2020/12/08 12:32:30;;;;;;;10.87;6.63;;;8.00;1.00;;;;;;5092448;28;20206;-66
2020/12/08 12:34:55;;;;;;;10.47;6.00;;;8.00;1.00;;;;;;5097160;28;20175;-67
2020/12/08 12:37:23;;;;;;;18.40;6.00;;;8.10;1.00;;;;;;5096784;28;20211;-67
2020/12/08 12:39:49;;;;;;;22.58;6.65;;;7.90;1.00;;;;;;5096822;28;20282;-67
2020/12/08 12:42:15;;;;;;;15.83;6.20;;;7.90;1.00;;;;;;5096165;28;20191;-66